sensor_id;sensor_type;location;lat;lon;timestamp;pressure;altitude;pressure_sealevel;temperature;humidity
73316;BME280;61545;53.726;-0.444;2022-07-23T00:02:00;1016.5;;;15.2;73.0
73316;BME280;61545;53.726;-0.444;2022-07-23T00:07:00;1016.4;;;15.1;72.6
73316;BME280;61545;53.726;-0.444;2022-07-23T00:12:00;1016.3;;;15.2;72.3
73316;BME280;61545;53.726;-0.444;2022-07-23T00:17:00;1016.3;;;15.2;72.1
73316;BME280;61545;53.726;-0.444;2022-07-23T00:22:00;1016.3;;;15.1;72.0
73316;BME280;61545;53.726;-0.444;2022-07-23T00:27:00;1016.3;;;15.1;71.9
73316;BME280;61545;53.726;-0.444;2022-07-23T00:32:00;1016.2;;;15.1;72.0
73316;BME280;61545;53.726;-0.444;2022-07-23T00:37:00;1016.2;;;15.2;71.9
73316;BME280;61545;53.726;-0.444;2022-07-23T00:42:00;1016.2;;;15.2;72.0
73316;BME280;61545;53.726;-0.444;2022-07-23T00:47:00;1016.1;;;15.2;72.0
73316;BME280;61545;53.726;-0.444;2022-07-23T00:52:01;1016.1;;;15.1;72.1
73316;BME280;61545;53.726;-0.444;2022-07-23T00:57:00;1016.0;;;15.1;72.2
73316;BME280;61545;53.726;-0.444;2022-07-23T01:02:00;1016.0;;;15.1;72.4
73316;BME280;61545;53.726;-0.444;2022-07-23T01:07:00;1015.9;;;15.2;72.5
73316;BME280;61545;53.726;-0.444;2022-07-23T01:12:00;1015.9;;;15.2;72.5
73316;BME280;61545;53.726;-0.444;2022-07-23T01:17:00;1015.8;;;15.2;72.5
73316;BME280;61545;53.726;-0.444;2022-07-23T01:22:02;1015.7;;;15.1;72.5
73316;BME280;61545;53.726;-0.444;2022-07-23T01:27:00;1015.7;;;15.1;72.5
73316;BME280;61545;53.726;-0.444;2022-07-23T01:32:00;1015.7;;;15.2;72.5
73316;BME280;61545;53.726;-0.444;2022-07-23T01:37:00;1015.7;;;15.1;72.5
73316;BME280;61545;53.726;-0.444;2022-07-23T01:42:00;1015.7;;;15.1;72.5
73316;BME280;61545;53.726;-0.444;2022-07-23T01:47:00;1015.7;;;15.1;72.6
73316;BME280;61545;53.726;-0.444;2022-07-23T01:52:00;1015.7;;;15.2;72.6
73316;BME280;61545;53.726;-0.444;2022-07-23T01:57:00;1015.7;;;15.1;72.6
73316;BME280;61545;53.726;-0.444;2022-07-23T02:02:00;1015.7;;;15.1;72.6
73316;BME280;61545;53.726;-0.444;2022-07-23T02:07:00;1015.6;;;15.0;72.5
73316;BME280;61545;53.726;-0.444;2022-07-23T02:12:00;1015.6;;;15.2;72.7
73316;BME280;61545;53.726;-0.444;2022-07-23T02:17:00;1015.5;;;15.2;72.7
73316;BME280;61545;53.726;-0.444;2022-07-23T02:22:00;1015.5;;;15.1;72.7
73316;BME280;61545;53.726;-0.444;2022-07-23T02:27:00;1015.4;;;15.1;72.8
73316;BME280;61545;53.726;-0.444;2022-07-23T02:32:00;1015.4;;;15.0;72.8
73316;BME280;61545;53.726;-0.444;2022-07-23T02:37:00;1015.4;;;15.0;72.9
73316;BME280;61545;53.726;-0.444;2022-07-23T02:42:00;1015.4;;;15.1;72.9
73316;BME280;61545;53.726;-0.444;2022-07-23T02:47:00;1015.4;;;15.2;73.1
73316;BME280;61545;53.726;-0.444;2022-07-23T02:52:00;1015.3;;;15.1;73.0
73316;BME280;61545;53.726;-0.444;2022-07-23T02:57:00;1015.3;;;15.0;73.0
73316;BME280;61545;53.726;-0.444;2022-07-23T03:02:00;1015.2;;;15.1;73.2
73316;BME280;61545;53.726;-0.444;2022-07-23T03:07:00;1015.3;;;15.0;73.3
73316;BME280;61545;53.726;-0.444;2022-07-23T03:12:00;1015.3;;;15.1;73.5
73316;BME280;61545;53.726;-0.444;2022-07-23T03:17:00;1015.3;;;15.1;73.5
73316;BME280;61545;53.726;-0.444;2022-07-23T03:22:00;1015.3;;;15.1;73.5
73316;BME280;61545;53.726;-0.444;2022-07-23T03:27:00;1015.3;;;15.2;73.4
73316;BME280;61545;53.726;-0.444;2022-07-23T03:32:00;1015.3;;;15.2;73.4
73316;BME280;61545;53.726;-0.444;2022-07-23T03:37:00;1015.3;;;15.2;73.5
73316;BME280;61545;53.726;-0.444;2022-07-23T03:42:00;1015.3;;;15.2;73.5
73316;BME280;61545;53.726;-0.444;2022-07-23T03:47:00;1015.3;;;15.4;73.6
73316;BME280;61545;53.726;-0.444;2022-07-23T03:52:00;1015.2;;;15.4;73.6
73316;BME280;61545;53.726;-0.444;2022-07-23T03:57:00;1015.3;;;15.2;73.6
73316;BME280;61545;53.726;-0.444;2022-07-23T04:02:00;1015.2;;;15.1;73.6
73316;BME280;61545;53.726;-0.444;2022-07-23T04:07:00;1015.2;;;15.1;73.6
73316;BME280;61545;53.726;-0.444;2022-07-23T04:12:00;1015.2;;;15.1;73.6
73316;BME280;61545;53.726;-0.444;2022-07-23T04:17:00;1015.1;;;15.0;73.9
73316;BME280;61545;53.726;-0.444;2022-07-23T04:22:00;1015.1;;;15.0;74.4
73316;BME280;61545;53.726;-0.444;2022-07-23T04:27:00;1015.1;;;14.9;74.9
73316;BME280;61545;53.726;-0.444;2022-07-23T04:32:00;1015.1;;;14.9;75.3
73316;BME280;61545;53.726;-0.444;2022-07-23T04:37:00;1015.1;;;14.8;75.7
73316;BME280;61545;53.726;-0.444;2022-07-23T04:42:00;1015.1;;;14.9;76.3
73316;BME280;61545;53.726;-0.444;2022-07-23T04:47:00;1015.2;;;15.0;76.7
73316;BME280;61545;53.726;-0.444;2022-07-23T04:52:00;1015.2;;;15.0;77.1
73316;BME280;61545;53.726;-0.444;2022-07-23T04:57:00;1015.2;;;15.0;77.5
73316;BME280;61545;53.726;-0.444;2022-07-23T05:02:00;1015.2;;;15.1;77.7
73316;BME280;61545;53.726;-0.444;2022-07-23T05:07:00;1015.2;;;15.2;77.9
73316;BME280;61545;53.726;-0.444;2022-07-23T05:12:00;1015.2;;;15.0;78.2
73316;BME280;61545;53.726;-0.444;2022-07-23T05:17:00;1015.1;;;15.0;78.1
73316;BME280;61545;53.726;-0.444;2022-07-23T05:22:00;1015.1;;;15.1;78.1
73316;BME280;61545;53.726;-0.444;2022-07-23T05:27:00;1015.1;;;15.2;77.9
73316;BME280;61545;53.726;-0.444;2022-07-23T05:32:00;1015.1;;;15.4;77.8
73316;BME280;61545;53.726;-0.444;2022-07-23T05:37:00;1015.0;;;15.3;77.6
73316;BME280;61545;53.726;-0.444;2022-07-23T05:42:00;1015.0;;;15.7;77.5
73316;BME280;61545;53.726;-0.444;2022-07-23T05:47:00;1015.0;;;15.9;77.3
73316;BME280;61545;53.726;-0.444;2022-07-23T05:52:03;1015.0;;;15.6;77.0
73316;BME280;61545;53.726;-0.444;2022-07-23T05:57:00;1015.0;;;15.6;77.0
73316;BME280;61545;53.726;-0.444;2022-07-23T06:02:00;1015.1;;;15.7;77.1
73316;BME280;61545;53.726;-0.444;2022-07-23T06:07:00;1015.0;;;15.7;77.1
73316;BME280;61545;53.726;-0.444;2022-07-23T06:12:00;1015.0;;;15.7;77.1
73316;BME280;61545;53.726;-0.444;2022-07-23T06:17:00;1015.0;;;16.0;76.9
73316;BME280;61545;53.726;-0.444;2022-07-23T06:22:00;1015.0;;;16.1;76.7
73316;BME280;61545;53.726;-0.444;2022-07-23T06:27:00;1014.8;;;16.2;76.7
73316;BME280;61545;53.726;-0.444;2022-07-23T06:32:00;1014.9;;;16.4;76.5
73316;BME280;61545;53.726;-0.444;2022-07-23T06:37:00;1015.0;;;16.2;76.1
73316;BME280;61545;53.726;-0.444;2022-07-23T06:42:00;1015.0;;;15.9;76.0
73316;BME280;61545;53.726;-0.444;2022-07-23T06:47:00;1015.0;;;17.4;76.0
73316;BME280;61545;53.726;-0.444;2022-07-23T06:52:00;1014.9;;;20.0;75.0
73316;BME280;61545;53.726;-0.444;2022-07-23T06:57:00;1014.9;;;20.3;72.3
73316;BME280;61545;53.726;-0.444;2022-07-23T07:02:00;1014.8;;;21.2;70.3
73316;BME280;61545;53.726;-0.444;2022-07-23T07:07:00;1014.8;;;21.9;69.0
73316;BME280;61545;53.726;-0.444;2022-07-23T07:12:00;1014.8;;;22.7;67.6
73316;BME280;61545;53.726;-0.444;2022-07-23T07:17:00;1014.8;;;22.3;66.3
73316;BME280;61545;53.726;-0.444;2022-07-23T07:22:00;1014.9;;;20.7;66.0
73316;BME280;61545;53.726;-0.444;2022-07-23T07:27:00;1014.9;;;21.3;65.9
73316;BME280;61545;53.726;-0.444;2022-07-23T07:32:00;1015.0;;;19.7;66.3
73316;BME280;61545;53.726;-0.444;2022-07-23T07:37:00;1014.9;;;19.3;66.9
73316;BME280;61545;53.726;-0.444;2022-07-23T07:42:00;1014.9;;;18.8;67.7
73316;BME280;61545;53.726;-0.444;2022-07-23T07:47:00;1015.0;;;18.7;68.3
73316;BME280;61545;53.726;-0.444;2022-07-23T07:52:00;1014.9;;;18.5;68.9
73316;BME280;61545;53.726;-0.444;2022-07-23T07:57:00;1014.8;;;19.0;69.4
73316;BME280;61545;53.726;-0.444;2022-07-23T08:02:00;1014.8;;;21.0;69.3
73316;BME280;61545;53.726;-0.444;2022-07-23T08:07:00;1014.7;;;23.7;68.0
73316;BME280;61545;53.726;-0.444;2022-07-23T08:12:00;1014.7;;;23.2;65.8
73316;BME280;61545;53.726;-0.444;2022-07-23T08:17:00;1014.7;;;23.2;65.0
73316;BME280;61545;53.726;-0.444;2022-07-23T08:22:00;1014.6;;;23.0;64.1
73316;BME280;61545;53.726;-0.444;2022-07-23T08:27:00;1014.7;;;23.7;63.7
73316;BME280;61545;53.726;-0.444;2022-07-23T08:32:00;1014.6;;;24.7;62.5
73316;BME280;61545;53.726;-0.444;2022-07-23T08:37:00;1014.6;;;25.0;61.9
73316;BME280;61545;53.726;-0.444;2022-07-23T08:42:00;1014.5;;;24.9;60.6
73316;BME280;61545;53.726;-0.444;2022-07-23T08:47:00;1014.5;;;24.7;60.1
73316;BME280;61545;53.726;-0.444;2022-07-23T08:52:00;1014.5;;;25.9;59.6
73316;BME280;61545;53.726;-0.444;2022-07-23T08:57:00;1014.4;;;25.6;59.1
73316;BME280;61545;53.726;-0.444;2022-07-23T09:02:00;1014.4;;;25.7;58.4
73316;BME280;61545;53.726;-0.444;2022-07-23T09:07:01;1014.5;;;25.4;58.5
73316;BME280;61545;53.726;-0.444;2022-07-23T09:12:02;1014.5;;;26.1;58.3
73316;BME280;61545;53.726;-0.444;2022-07-23T09:17:08;1014.5;;;24.9;57.9
73316;BME280;61545;53.726;-0.444;2022-07-23T09:22:16;1014.5;;;24.4;58.2
73316;BME280;61545;53.726;-0.444;2022-07-23T09:27:00;1014.5;;;25.5;58.0
73316;BME280;61545;53.726;-0.444;2022-07-23T09:32:01;1014.4;;;25.5;57.3
73316;BME280;61545;53.726;-0.444;2022-07-23T09:37:09;1014.4;;;25.0;57.2
73316;BME280;61545;53.726;-0.444;2022-07-23T09:42:12;1014.3;;;25.5;57.3
73316;BME280;61545;53.726;-0.444;2022-07-23T09:47:00;1014.3;;;24.0;56.7
73316;BME280;61545;53.726;-0.444;2022-07-23T09:52:00;1014.3;;;23.4;57.1
73316;BME280;61545;53.726;-0.444;2022-07-23T09:57:03;1014.2;;;23.1;57.8
73316;BME280;61545;53.726;-0.444;2022-07-23T10:02:00;1014.2;;;22.9;58.4
73316;BME280;61545;53.726;-0.444;2022-07-23T10:07:01;1014.2;;;23.0;58.7
73316;BME280;61545;53.726;-0.444;2022-07-23T10:12:02;1014.2;;;24.0;58.5
73316;BME280;61545;53.726;-0.444;2022-07-23T10:17:01;1014.1;;;24.5;57.7
73316;BME280;61545;53.726;-0.444;2022-07-23T10:22:01;1014.1;;;24.0;56.4
73316;BME280;61545;53.726;-0.444;2022-07-23T10:27:04;1014.0;;;25.7;55.4
73316;BME280;61545;53.726;-0.444;2022-07-23T10:32:02;1013.9;;;25.2;53.8
73316;BME280;61545;53.726;-0.444;2022-07-23T10:37:05;1014.0;;;25.4;53.3
73316;BME280;61545;53.726;-0.444;2022-07-23T10:42:08;1014.0;;;25.4;52.4
73316;BME280;61545;53.726;-0.444;2022-07-23T10:47:01;1014.0;;;24.5;50.5
73316;BME280;61545;53.726;-0.444;2022-07-23T10:52:17;1013.8;;;24.0;51.7
73316;BME280;61545;53.726;-0.444;2022-07-23T10:57:06;1013.9;;;23.8;52.4
73316;BME280;61545;53.726;-0.444;2022-07-23T11:02:20;1013.9;;;24.7;51.5
73316;BME280;61545;53.726;-0.444;2022-07-23T11:07:07;1013.8;;;25.1;50.1
73316;BME280;61545;53.726;-0.444;2022-07-23T11:12:31;1013.7;;;24.9;49.3
73316;BME280;61545;53.726;-0.444;2022-07-23T11:17:00;1013.6;;;24.7;49.0
73316;BME280;61545;53.726;-0.444;2022-07-23T11:22:00;1013.7;;;24.5;48.8
73316;BME280;61545;53.726;-0.444;2022-07-23T11:27:01;1013.6;;;25.4;48.5
73316;BME280;61545;53.726;-0.444;2022-07-23T11:32:01;1013.6;;;24.5;48.5
73316;BME280;61545;53.726;-0.444;2022-07-23T11:37:00;1013.6;;;24.0;48.6
73316;BME280;61545;53.726;-0.444;2022-07-23T11:42:01;1013.5;;;24.7;49.0
73316;BME280;61545;53.726;-0.444;2022-07-23T11:47:02;1013.6;;;24.1;49.4
73316;BME280;61545;53.726;-0.444;2022-07-23T11:52:04;1013.6;;;24.0;49.8
73316;BME280;61545;53.726;-0.444;2022-07-23T11:57:00;1013.4;;;24.4;49.6
73316;BME280;61545;53.726;-0.444;2022-07-23T12:02:01;1013.4;;;24.2;48.8
73316;BME280;61545;53.726;-0.444;2022-07-23T12:07:00;1013.4;;;24.7;48.1
73316;BME280;61545;53.726;-0.444;2022-07-23T12:12:00;1013.4;;;24.5;47.8
73316;BME280;61545;53.726;-0.444;2022-07-23T12:17:07;1013.4;;;24.8;48.1
73316;BME280;61545;53.726;-0.444;2022-07-23T12:22:00;1013.4;;;24.7;47.8
73316;BME280;61545;53.726;-0.444;2022-07-23T12:27:08;1013.4;;;24.4;47.6
73316;BME280;61545;53.726;-0.444;2022-07-23T12:32:00;1013.4;;;24.9;47.6
73316;BME280;61545;53.726;-0.444;2022-07-23T12:37:00;1013.4;;;25.3;46.8
73316;BME280;61545;53.726;-0.444;2022-07-23T12:42:00;1013.4;;;25.3;46.5
73316;BME280;61545;53.726;-0.444;2022-07-23T12:47:01;1013.4;;;24.8;46.9
73316;BME280;61545;53.726;-0.444;2022-07-23T12:52:00;1013.4;;;24.2;47.2
73316;BME280;61545;53.726;-0.444;2022-07-23T12:57:00;1013.4;;;24.7;47.5
73316;BME280;61545;53.726;-0.444;2022-07-23T13:02:00;1013.4;;;24.7;46.1
73316;BME280;61545;53.726;-0.444;2022-07-23T13:07:00;1013.4;;;24.7;45.2
73316;BME280;61545;53.726;-0.444;2022-07-23T13:12:00;1013.3;;;24.9;44.7
73316;BME280;61545;53.726;-0.444;2022-07-23T13:17:00;1013.3;;;25.2;44.0
73316;BME280;61545;53.726;-0.444;2022-07-23T13:22:00;1013.2;;;25.5;43.6
73316;BME280;61545;53.726;-0.444;2022-07-23T13:27:00;1013.2;;;25.0;43.6
73316;BME280;61545;53.726;-0.444;2022-07-23T13:32:00;1013.0;;;24.5;43.5
73316;BME280;61545;53.726;-0.444;2022-07-23T13:37:00;1013.1;;;24.6;43.1
73316;BME280;61545;53.726;-0.444;2022-07-23T13:42:00;1013.0;;;24.6;42.9
73316;BME280;61545;53.726;-0.444;2022-07-23T13:47:00;1013.0;;;25.1;43.0
73316;BME280;61545;53.726;-0.444;2022-07-23T13:52:01;1013.0;;;24.3;42.7
73316;BME280;61545;53.726;-0.444;2022-07-23T13:57:00;1012.9;;;23.9;42.8
73316;BME280;61545;53.726;-0.444;2022-07-23T14:02:00;1012.9;;;24.5;43.0
73316;BME280;61545;53.726;-0.444;2022-07-23T14:07:00;1012.8;;;24.0;43.1
73316;BME280;61545;53.726;-0.444;2022-07-23T14:12:00;1012.9;;;23.9;44.3
73316;BME280;61545;53.726;-0.444;2022-07-23T14:17:00;1012.9;;;23.5;44.8
73316;BME280;61545;53.726;-0.444;2022-07-23T14:22:00;1012.9;;;23.5;45.2
73316;BME280;61545;53.726;-0.444;2022-07-23T14:27:00;1012.9;;;23.4;45.7
73316;BME280;61545;53.726;-0.444;2022-07-23T14:32:00;1012.9;;;23.4;46.2
73316;BME280;61545;53.726;-0.444;2022-07-23T14:37:00;1012.9;;;23.3;47.0
73316;BME280;61545;53.726;-0.444;2022-07-23T14:42:00;1012.9;;;23.1;47.5
73316;BME280;61545;53.726;-0.444;2022-07-23T14:47:00;1012.9;;;23.0;47.9
73316;BME280;61545;53.726;-0.444;2022-07-23T14:52:00;1012.9;;;22.7;48.7
73316;BME280;61545;53.726;-0.444;2022-07-23T14:57:00;1012.9;;;22.7;49.9
73316;BME280;61545;53.726;-0.444;2022-07-23T15:02:00;1012.9;;;22.9;50.6
73316;BME280;61545;53.726;-0.444;2022-07-23T15:07:00;1012.9;;;23.0;51.2
73316;BME280;61545;53.726;-0.444;2022-07-23T15:12:00;1012.9;;;22.9;51.1
73316;BME280;61545;53.726;-0.444;2022-07-23T15:17:00;1012.8;;;22.8;51.2
73316;BME280;61545;53.726;-0.444;2022-07-23T15:22:00;1012.8;;;22.7;51.4
73316;BME280;61545;53.726;-0.444;2022-07-23T15:27:00;1012.7;;;23.2;51.6
73316;BME280;61545;53.726;-0.444;2022-07-23T15:32:00;1012.6;;;23.3;51.2
73316;BME280;61545;53.726;-0.444;2022-07-23T15:37:00;1012.5;;;23.4;51.3
73316;BME280;61545;53.726;-0.444;2022-07-23T15:42:00;1012.4;;;23.2;51.3
73316;BME280;61545;53.726;-0.444;2022-07-23T15:47:00;1012.4;;;23.0;51.9
73316;BME280;61545;53.726;-0.444;2022-07-23T15:52:00;1012.2;;;23.1;52.0
73316;BME280;61545;53.726;-0.444;2022-07-23T15:57:00;1012.3;;;22.9;52.3
73316;BME280;61545;53.726;-0.444;2022-07-23T16:02:00;1012.3;;;22.7;52.6
73316;BME280;61545;53.726;-0.444;2022-07-23T16:07:00;1012.2;;;22.5;53.2
73316;BME280;61545;53.726;-0.444;2022-07-23T16:12:00;1012.1;;;22.5;53.8
73316;BME280;61545;53.726;-0.444;2022-07-23T16:17:00;1012.0;;;22.6;54.1
73316;BME280;61545;53.726;-0.444;2022-07-23T16:22:00;1011.9;;;23.3;53.6
73316;BME280;61545;53.726;-0.444;2022-07-23T16:27:00;1011.9;;;23.2;53.0
73316;BME280;61545;53.726;-0.444;2022-07-23T16:32:00;1011.9;;;23.1;53.0
73316;BME280;61545;53.726;-0.444;2022-07-23T16:37:00;1011.8;;;23.0;53.2
73316;BME280;61545;53.726;-0.444;2022-07-23T16:42:00;1011.8;;;23.1;53.4
73316;BME280;61545;53.726;-0.444;2022-07-23T16:47:00;1011.7;;;22.9;53.0
73316;BME280;61545;53.726;-0.444;2022-07-23T16:52:00;1011.8;;;22.6;53.1
73316;BME280;61545;53.726;-0.444;2022-07-23T16:57:00;1011.8;;;22.6;53.8
73316;BME280;61545;53.726;-0.444;2022-07-23T17:02:00;1011.7;;;22.8;54.3
73316;BME280;61545;53.726;-0.444;2022-07-23T17:07:00;1011.8;;;22.8;54.4
73316;BME280;61545;53.726;-0.444;2022-07-23T17:12:00;1011.7;;;22.5;54.4
73316;BME280;61545;53.726;-0.444;2022-07-23T17:17:00;1011.8;;;22.2;54.7
73316;BME280;61545;53.726;-0.444;2022-07-23T17:22:00;1011.8;;;22.4;55.3
73316;BME280;61545;53.726;-0.444;2022-07-23T17:27:00;1011.8;;;22.4;55.6
73316;BME280;61545;53.726;-0.444;2022-07-23T17:32:00;1011.8;;;22.4;55.5
73316;BME280;61545;53.726;-0.444;2022-07-23T17:37:00;1011.7;;;22.4;55.6
73316;BME280;61545;53.726;-0.444;2022-07-23T17:42:00;1011.7;;;22.4;55.9
73316;BME280;61545;53.726;-0.444;2022-07-23T17:47:00;1011.6;;;22.2;56.5
73316;BME280;61545;53.726;-0.444;2022-07-23T17:52:00;1011.5;;;22.1;56.7
73316;BME280;61545;53.726;-0.444;2022-07-23T17:57:00;1011.5;;;22.2;56.7
73316;BME280;61545;53.726;-0.444;2022-07-23T18:02:00;1011.4;;;22.2;56.6
73316;BME280;61545;53.726;-0.444;2022-07-23T18:07:00;1011.4;;;22.0;57.0
73316;BME280;61545;53.726;-0.444;2022-07-23T18:12:01;1011.3;;;22.0;57.7
73316;BME280;61545;53.726;-0.444;2022-07-23T18:17:00;1011.3;;;21.9;57.8
73316;BME280;61545;53.726;-0.444;2022-07-23T18:22:00;1011.4;;;21.9;57.8
73316;BME280;61545;53.726;-0.444;2022-07-23T18:27:00;1011.4;;;21.7;57.8
73316;BME280;61545;53.726;-0.444;2022-07-23T18:32:00;1011.4;;;21.7;58.3
73316;BME280;61545;53.726;-0.444;2022-07-23T18:37:00;1011.4;;;21.6;58.8
73316;BME280;61545;53.726;-0.444;2022-07-23T18:42:00;1011.3;;;21.6;59.0
73316;BME280;61545;53.726;-0.444;2022-07-23T18:47:00;1011.2;;;21.7;59.2
73316;BME280;61545;53.726;-0.444;2022-07-23T18:52:00;1011.2;;;21.6;59.1
73316;BME280;61545;53.726;-0.444;2022-07-23T18:57:00;1011.2;;;21.5;58.8
73316;BME280;61545;53.726;-0.444;2022-07-23T19:02:00;1011.2;;;21.5;58.6
73316;BME280;61545;53.726;-0.444;2022-07-23T19:07:00;1011.1;;;21.5;58.6
73316;BME280;61545;53.726;-0.444;2022-07-23T19:12:00;1011.1;;;21.5;58.5
73316;BME280;61545;53.726;-0.444;2022-07-23T19:17:00;1011.1;;;21.4;58.6
73316;BME280;61545;53.726;-0.444;2022-07-23T19:22:00;1010.9;;;21.4;58.8
73316;BME280;61545;53.726;-0.444;2022-07-23T19:27:00;1010.8;;;21.4;59.0
73316;BME280;61545;53.726;-0.444;2022-07-23T19:32:01;1010.8;;;21.4;59.0
73316;BME280;61545;53.726;-0.444;2022-07-23T19:37:00;1010.8;;;21.4;59.1
73316;BME280;61545;53.726;-0.444;2022-07-23T19:42:00;1010.7;;;21.3;59.1
73316;BME280;61545;53.726;-0.444;2022-07-23T19:47:00;1010.7;;;21.2;59.4
73316;BME280;61545;53.726;-0.444;2022-07-23T19:52:00;1010.7;;;21.1;59.6
73316;BME280;61545;53.726;-0.444;2022-07-23T19:57:00;1010.7;;;21.0;59.9
73316;BME280;61545;53.726;-0.444;2022-07-23T20:02:00;1010.6;;;21.0;60.1
73316;BME280;61545;53.726;-0.444;2022-07-23T20:07:00;1010.5;;;21.0;60.3
73316;BME280;61545;53.726;-0.444;2022-07-23T20:12:00;1010.6;;;20.9;60.5
73316;BME280;61545;53.726;-0.444;2022-07-23T20:17:00;1010.6;;;20.9;60.6
73316;BME280;61545;53.726;-0.444;2022-07-23T20:22:00;1010.8;;;20.9;61.0
73316;BME280;61545;53.726;-0.444;2022-07-23T20:27:00;1010.9;;;20.9;61.3
73316;BME280;61545;53.726;-0.444;2022-07-23T20:32:00;1010.9;;;20.8;61.5
73316;BME280;61545;53.726;-0.444;2022-07-23T20:37:00;1011.0;;;20.8;61.8
73316;BME280;61545;53.726;-0.444;2022-07-23T20:42:00;1011.0;;;20.8;61.8
73316;BME280;61545;53.726;-0.444;2022-07-23T20:47:00;1010.8;;;20.8;62.0
73316;BME280;61545;53.726;-0.444;2022-07-23T20:52:00;1010.6;;;20.7;62.1
73316;BME280;61545;53.726;-0.444;2022-07-23T20:57:00;1010.7;;;20.7;62.2
73316;BME280;61545;53.726;-0.444;2022-07-23T21:02:00;1010.7;;;20.7;62.4
73316;BME280;61545;53.726;-0.444;2022-07-23T21:07:00;1010.7;;;20.6;62.7
73316;BME280;61545;53.726;-0.444;2022-07-23T21:12:00;1010.6;;;20.6;63.0
73316;BME280;61545;53.726;-0.444;2022-07-23T21:17:00;1010.6;;;20.5;63.3
73316;BME280;61545;53.726;-0.444;2022-07-23T21:22:00;1010.5;;;20.5;63.5
73316;BME280;61545;53.726;-0.444;2022-07-23T21:27:00;1010.7;;;20.4;63.7
73316;BME280;61545;53.726;-0.444;2022-07-23T21:32:00;1010.5;;;20.4;64.4
73316;BME280;61545;53.726;-0.444;2022-07-23T21:37:00;1010.4;;;20.4;64.8
73316;BME280;61545;53.726;-0.444;2022-07-23T21:42:00;1010.6;;;20.4;65.4
73316;BME280;61545;53.726;-0.444;2022-07-23T21:47:00;1010.6;;;20.4;66.0
73316;BME280;61545;53.726;-0.444;2022-07-23T21:52:00;1010.5;;;20.4;66.4
73316;BME280;61545;53.726;-0.444;2022-07-23T21:57:00;1010.6;;;20.3;66.6
73316;BME280;61545;53.726;-0.444;2022-07-23T22:02:00;1010.5;;;20.3;66.9
73316;BME280;61545;53.726;-0.444;2022-07-23T22:07:00;1010.5;;;20.2;67.1
73316;BME280;61545;53.726;-0.444;2022-07-23T22:12:00;1010.4;;;20.2;67.3
73316;BME280;61545;53.726;-0.444;2022-07-23T22:17:00;1010.4;;;20.2;67.4
73316;BME280;61545;53.726;-0.444;2022-07-23T22:22:00;1010.4;;;20.1;67.5
73316;BME280;61545;53.726;-0.444;2022-07-23T22:27:00;1010.4;;;20.0;67.5
73316;BME280;61545;53.726;-0.444;2022-07-23T22:32:00;1010.3;;;20.0;67.8
73316;BME280;61545;53.726;-0.444;2022-07-23T22:37:00;1010.2;;;20.0;67.8
73316;BME280;61545;53.726;-0.444;2022-07-23T22:42:00;1010.1;;;20.0;67.9
73316;BME280;61545;53.726;-0.444;2022-07-23T22:47:00;1010.1;;;20.0;68.0
73316;BME280;61545;53.726;-0.444;2022-07-23T22:52:00;1010.1;;;19.9;68.1
73316;BME280;61545;53.726;-0.444;2022-07-23T22:57:00;1010.0;;;19.9;68.3
73316;BME280;61545;53.726;-0.444;2022-07-23T23:02:00;1010.1;;;19.9;68.4
73316;BME280;61545;53.726;-0.444;2022-07-23T23:07:00;1010.0;;;19.9;68.6
73316;BME280;61545;53.726;-0.444;2022-07-23T23:12:00;1010.0;;;19.7;69.2
73316;BME280;61545;53.726;-0.444;2022-07-23T23:17:00;1009.9;;;19.5;69.9
73316;BME280;61545;53.726;-0.444;2022-07-23T23:22:00;1009.8;;;19.5;70.5
73316;BME280;61545;53.726;-0.444;2022-07-23T23:27:00;1009.7;;;19.5;71.2
73316;BME280;61545;53.726;-0.444;2022-07-23T23:32:00;1009.8;;;19.5;71.7
73316;BME280;61545;53.726;-0.444;2022-07-23T23:37:00;1009.7;;;19.4;71.9
73316;BME280;61545;53.726;-0.444;2022-07-23T23:42:00;1009.7;;;19.3;72.1
73316;BME280;61545;53.726;-0.444;2022-07-23T23:47:00;1009.7;;;19.2;72.1
73316;BME280;61545;53.726;-0.444;2022-07-23T23:52:00;1009.6;;;19.2;72.1
73316;BME280;61545;53.726;-0.444;2022-07-23T23:57:00;1009.8;;;19.3;72.3
